Time;durP1;ratioP1;P1;durP2;ratioP2;P2;SDS_P1;SDS_P2;PMS_P1;PMS_P2;Temp;Humidity;BMP_temperature;BMP_pressure;BME280_temperature;BME280_humidity;BME280_pressure;Samples;Min_cycle;Max_cycle;Signal;HPM_P1;HPM_P2
2022/07/05 00:00:27;;;;;;;6.17;5.05;;;;;;;;;;1739424;80;21545;-62
2022/07/05 00:02:53;;;;;;;6.03;4.85;;;;;;;;;;1755844;81;21678;-62
2022/07/05 00:05:19;;;;;;;7.15;5.67;;;;;;;;;;1751263;80;21173;-61
2022/07/05 00:07:46;;;;;;;7.40;6.10;;;;;;;;;;1748448;80;21045;-62
2022/07/05 00:10:12;;;;;;;7.58;6.15;;;;;;;;;;1744113;80;21540;-61
2022/07/05 00:12:39;;;;;;;7.10;5.65;;;;;;;;;;1760359;80;21057;-62
2022/07/05 00:15:06;;;;;;;5.65;4.80;;;;;;;;;;1757962;80;21041;-62
2022/07/05 00:17:34;;;;;;;6.25;4.85;;;;;;;;;;1747519;81;21629;-62
2022/07/05 00:20:00;;;;;;;5.95;5.00;;;;;;;;;;1746414;80;21112;-62
2022/07/05 00:22:26;;;;;;;7.92;4.90;;;;;;;;;;1745226;81;21073;-62
2022/07/05 00:24:53;;;;;;;4.87;3.80;;;;;;;;;;1734526;80;21528;-62
2022/07/05 00:27:19;;;;;;;6.85;5.40;;;;;;;;;;1733413;81;21072;-62
2022/07/05 00:29:45;;;;;;;4.97;4.17;;;;;;;;;;1747774;82;21050;-62
2022/07/05 00:32:12;;;;;;;5.33;4.28;;;;;;;;;;1748189;81;21226;-62
2022/07/05 00:34:39;;;;;;;7.08;5.45;;;;;;;;;;1746270;80;21002;-61
2022/07/05 00:37:05;;;;;;;5.92;4.90;;;;;;;;;;1753368;80;21524;-61
2022/07/05 00:39:32;;;;;;;5.95;4.87;;;;;;;;;;1763500;81;21057;-61
2022/07/05 00:42:00;;;;;;;7.00;5.40;;;;;;;;;;1758612;81;21092;-62
2022/07/05 00:44:30;;;;;;;7.97;5.47;;;;;;;;;;1737854;81;21048;-62
2022/07/05 00:46:57;;;;;;;6.42;5.75;;;;;;;;;;1744899;80;21085;-62
2022/07/05 00:49:23;;;;;;;6.50;4.72;;;;;;;;;;1759820;80;20998;-62
2022/07/05 00:51:49;;;;;;;5.92;4.60;;;;;;;;;;1763675;81;21530;-62
2022/07/05 00:54:16;;;;;;;5.67;4.53;;;;;;;;;;1754768;81;21068;-61
2022/07/05 00:56:42;;;;;;;5.95;4.78;;;;;;;;;;1751469;80;21053;-62
2022/07/05 00:59:09;;;;;;;7.00;4.97;;;;;;;;;;1759876;81;21026;-61
2022/07/05 01:04:25;;;;;;;5.58;4.70;;;;;;;;;;1730228;79;21151;-60
2022/07/05 01:06:52;;;;;;;5.85;4.53;;;;;;;;;;1723823;81;20975;-60
2022/07/05 01:09:19;;;;;;;5.62;5.03;;;;;;;;;;1689111;83;21041;-60
2022/07/05 01:11:49;;;;;;;6.85;4.90;;;;;;;;;;1675364;85;21024;-60
2022/07/05 01:14:19;;;;;;;5.95;4.65;;;;;;;;;;1684544;83;21021;-61
2022/07/05 01:16:45;;;;;;;6.58;5.20;;;;;;;;;;1664957;85;21077;-61
2022/07/05 01:19:12;;;;;;;6.35;4.50;;;;;;;;;;1695592;84;21547;-61
2022/07/05 01:21:39;;;;;;;7.30;4.50;;;;;;;;;;1689637;84;21038;-63
2022/07/05 01:24:06;;;;;;;7.28;5.03;;;;;;;;;;1688789;84;21079;-61
2022/07/05 01:26:32;;;;;;;6.62;4.40;;;;;;;;;;1682905;83;21532;-61
2022/07/05 01:28:58;;;;;;;5.97;4.35;;;;;;;;;;1655806;83;21609;-61
2022/07/05 01:31:24;;;;;;;6.25;5.03;;;;;;;;;;1660460;85;21045;-61
2022/07/05 01:33:50;;;;;;;6.72;4.12;;;;;;;;;;1683943;85;21018;-61
2022/07/05 01:36:17;;;;;;;5.20;4.08;;;;;;;;;;1724439;82;21022;-61
2022/07/05 01:38:43;;;;;;;5.97;5.17;;;;;;;;;;1724472;81;21076;-61
2022/07/05 01:41:09;;;;;;;5.90;5.05;;;;;;;;;;1727996;83;21068;-61
2022/07/05 01:43:35;;;;;;;7.65;4.20;;;;;;;;;;1726482;83;21068;-61
2022/07/05 01:46:03;;;;;;;5.40;4.22;;;;;;;;;;1683351;84;21040;-61
2022/07/05 01:48:29;;;;;;;6.50;4.08;;;;;;;;;;1700522;83;21556;-61
2022/07/05 01:51:00;;;;;;;4.78;3.80;;;;;;;;;;1710566;83;21033;-61
2022/07/05 01:53:29;;;;;;;7.37;5.22;;;;;;;;;;1700018;83;21642;-60
2022/07/05 01:55:56;;;;;;;5.10;4.05;;;;;;;;;;1681813;85;21112;-61
2022/07/05 01:58:23;;;;;;;7.30;4.20;;;;;;;;;;1685223;83;21040;-62
2022/07/05 02:00:51;;;;;;;5.47;4.37;;;;;;;;;;1689340;83;21587;-62
2022/07/05 02:03:17;;;;;;;7.05;4.08;;;;;;;;;;1680306;85;21095;-62
2022/07/05 02:05:44;;;;;;;5.30;4.08;;;;;;;;;;1678741;85;21057;-62
2022/07/05 02:08:13;;;;;;;5.28;4.40;;;;;;;;;;1695426;83;21612;-62
2022/07/05 02:10:39;;;;;;;8.85;4.85;;;;;;;;;;1685480;85;21116;-62
2022/07/05 02:13:06;;;;;;;5.33;3.90;;;;;;;;;;1686106;85;21112;-62
2022/07/05 02:15:33;;;;;;;7.37;4.03;;;;;;;;;;1683378;83;21046;-62
2022/07/05 02:18:00;;;;;;;5.72;4.42;;;;;;;;;;1697477;83;21033;-62
2022/07/05 02:20:28;;;;;;;6.28;5.03;;;;;;;;;;1695883;83;21029;-62
2022/07/05 02:22:54;;;;;;;6.12;3.90;;;;;;;;;;1685832;85;21030;-64
2022/07/05 02:25:20;;;;;;;5.70;3.77;;;;;;;;;;1658458;83;20976;-62
2022/07/05 02:27:47;;;;;;;5.22;4.67;;;;;;;;;;1697525;83;21057;-62
2022/07/05 02:30:13;;;;;;;5.50;4.30;;;;;;;;;;1690586;84;21045;-62
2022/07/05 02:32:39;;;;;;;5.60;4.17;;;;;;;;;;1698599;84;21046;-60
2022/07/05 02:35:08;;;;;;;7.08;4.75;;;;;;;;;;1685726;85;21091;-60
2022/07/05 02:37:35;;;;;;;5.28;4.35;;;;;;;;;;1693492;84;21528;-60
2022/07/05 02:40:02;;;;;;;6.37;4.20;;;;;;;;;;1686852;83;21050;-60
2022/07/05 02:42:30;;;;;;;8.10;4.20;;;;;;;;;;1692248;84;21507;-60
2022/07/05 02:44:57;;;;;;;7.58;4.50;;;;;;;;;;1690797;84;21055;-60
2022/07/05 02:47:24;;;;;;;7.67;4.50;;;;;;;;;;1702235;84;21027;-60
2022/07/05 02:49:51;;;;;;;7.30;4.67;;;;;;;;;;1686502;84;21532;-60
2022/07/05 02:52:18;;;;;;;6.00;4.17;;;;;;;;;;1687412;84;21049;-60
2022/07/05 02:54:44;;;;;;;7.00;4.33;;;;;;;;;;1686671;83;21053;-60
2022/07/05 02:57:11;;;;;;;7.50;4.65;;;;;;;;;;1663123;85;21030;-60
2022/07/05 02:59:37;;;;;;;6.00;4.85;;;;;;;;;;1658238;85;21076;-60
2022/07/05 03:02:04;;;;;;;5.58;4.03;;;;;;;;;;1656570;85;21085;-60
2022/07/05 03:04:31;;;;;;;6.70;4.22;;;;;;;;;;1679796;85;21091;-60
2022/07/05 03:06:58;;;;;;;7.45;3.95;;;;;;;;;;1651261;85;21144;-60
2022/07/05 03:09:26;;;;;;;6.03;4.87;;;;;;;;;;1656076;86;21559;-60
2022/07/05 03:11:54;;;;;;;7.67;5.15;;;;;;;;;;1669484;85;21093;-61
2022/07/05 03:14:20;;;;;;;6.60;4.15;;;;;;;;;;1653365;85;21082;-61
2022/07/05 03:16:47;;;;;;;6.20;4.17;;;;;;;;;;1650026;87;21081;-60
2022/07/05 03:19:14;;;;;;;6.83;4.28;;;;;;;;;;1649696;85;21088;-61
2022/07/05 03:21:40;;;;;;;5.62;4.97;;;;;;;;;;1666556;85;21057;-61
2022/07/05 03:24:07;;;;;;;6.42;5.37;;;;;;;;;;1651399;85;21072;-61
2022/07/05 03:26:35;;;;;;;6.28;4.28;;;;;;;;;;1655277;85;21591;-61
2022/07/05 03:29:01;;;;;;;6.28;4.17;;;;;;;;;;1670299;85;21038;-61
2022/07/05 03:31:28;;;;;;;6.35;4.25;;;;;;;;;;1658240;86;21533;-61
2022/07/05 03:33:56;;;;;;;6.72;4.42;;;;;;;;;;1664281;84;21050;-61
2022/07/05 03:36:23;;;;;;;5.90;5.08;;;;;;;;;;1686838;85;21116;-61
2022/07/05 03:38:50;;;;;;;6.10;5.30;;;;;;;;;;1686064;84;20954;-62
2022/07/05 03:41:17;;;;;;;7.25;4.22;;;;;;;;;;1672092;85;21071;-62
2022/07/05 03:43:44;;;;;;;5.10;3.83;;;;;;;;;;1672098;86;21131;-61
2022/07/05 03:46:10;;;;;;;7.05;4.80;;;;;;;;;;1662823;84;21484;-61
2022/07/05 03:48:37;;;;;;;5.95;4.28;;;;;;;;;;1661409;84;21040;-61
2022/07/05 03:51:03;;;;;;;6.25;4.80;;;;;;;;;;1663886;86;21085;-61
2022/07/05 03:53:31;;;;;;;6.40;5.08;;;;;;;;;;1662560;85;21099;-62
2022/07/05 03:55:58;;;;;;;6.35;4.65;;;;;;;;;;1680435;84;21534;-62
2022/07/05 03:58:24;;;;;;;5.65;4.28;;;;;;;;;;1670191;85;21048;-62
2022/07/05 04:00:57;;;;;;;5.75;4.47;;;;;;;;;;1661007;86;21040;-62
2022/07/05 04:03:24;;;;;;;7.22;4.95;;;;;;;;;;1664608;85;21572;-61
2022/07/05 04:05:51;;;;;;;18.27;5.85;;;;;;;;;;1695548;84;21055;-64
2022/07/05 04:08:18;;;;;;;13.25;5.15;;;;;;;;;;1700387;83;21041;-62
2022/07/05 04:10:46;;;;;;;11.45;5.50;;;;;;;;;;1691009;84;21010;-62
2022/07/05 04:13:13;;;;;;;6.70;4.45;;;;;;;;;;1680438;85;21077;-62
2022/07/05 04:15:40;;;;;;;7.17;4.58;;;;;;;;;;1653236;85;21064;-62
2022/07/05 04:18:07;;;;;;;7.25;5.20;;;;;;;;;;1658108;85;21109;-62
2022/07/05 04:20:35;;;;;;;6.65;5.92;;;;;;;;;;1650910;85;21096;-62
2022/07/05 04:23:02;;;;;;;7.50;5.22;;;;;;;;;;1652308;87;21029;-62
2022/07/05 04:25:28;;;;;;;9.75;5.67;;;;;;;;;;1656490;86;21070;-62
2022/07/05 04:28:02;;;;;;;11.43;7.72;;;;;;;;;;1652774;85;21030;-62
2022/07/05 04:30:31;;;;;;;8.88;6.62;;;;;;;;;;1658893;85;21029;-62
2022/07/05 04:32:58;;;;;;;8.10;5.47;;;;;;;;;;1654676;87;21049;-62
2022/07/05 04:35:25;;;;;;;8.25;6.80;;;;;;;;;;1655199;86;20981;-62
2022/07/05 04:37:52;;;;;;;8.83;6.03;;;;;;;;;;1655615;85;21097;-62
2022/07/05 04:40:19;;;;;;;38.58;12.03;;;;;;;;;;1656389;85;21628;-63
2022/07/05 04:42:45;;;;;;;35.38;9.60;;;;;;;;;;1662181;85;21030;-63
2022/07/05 04:45:12;;;;;;;20.35;6.58;;;;;;;;;;1664344;85;21077;-63
2022/07/05 04:47:39;;;;;;;10.43;6.42;;;;;;;;;;1672295;85;21034;-61
2022/07/05 04:50:07;;;;;;;10.45;6.85;;;;;;;;;;1656845;85;21232;-62
2022/07/05 04:52:34;;;;;;;7.35;5.30;;;;;;;;;;1679246;85;21033;-62
2022/07/05 04:55:00;;;;;;;8.48;5.35;;;;;;;;;;1660573;85;21544;-61
2022/07/05 04:57:26;;;;;;;6.03;5.10;;;;;;;;;;1650576;86;21032;-62
2022/07/05 04:59:53;;;;;;;9.95;5.60;;;;;;;;;;1663713;86;21077;-62
2022/07/05 05:02:20;;;;;;;7.55;5.22;;;;;;;;;;1650603;85;21543;-61
2022/07/05 05:04:46;;;;;;;9.23;6.05;;;;;;;;;;1673229;85;21100;-61
2022/07/05 05:07:14;;;;;;;9.18;6.10;;;;;;;;;;1693367;84;21108;-61
2022/07/05 05:09:40;;;;;;;7.92;5.20;;;;;;;;;;1689058;84;20999;-62
2022/07/05 05:12:07;;;;;;;5.97;4.62;;;;;;;;;;1642773;87;21520;-62
2022/07/05 05:14:34;;;;;;;7.97;5.22;;;;;;;;;;1646412;87;21582;-62
2022/07/05 05:17:00;;;;;;;9.55;5.60;;;;;;;;;;1642860;87;21073;-61
2022/07/05 05:19:27;;;;;;;7.35;4.90;;;;;;;;;;1617918;88;21064;-62
2022/07/05 05:21:53;;;;;;;6.72;4.90;;;;;;;;;;1627211;87;21269;-63
2022/07/05 05:24:20;;;;;;;6.67;4.90;;;;;;;;;;1629971;86;21079;-63
2022/07/05 05:26:47;;;;;;;6.40;4.80;;;;;;;;;;1637335;87;21142;-62
2022/07/05 05:29:13;;;;;;;6.92;4.83;;;;;;;;;;1640465;86;21097;-61
2022/07/05 05:31:39;;;;;;;8.35;5.40;;;;;;;;;;1647997;86;21061;-62
2022/07/05 05:34:06;;;;;;;6.28;5.33;;;;;;;;;;1638682;87;21120;-62
2022/07/05 05:36:32;;;;;;;8.05;5.35;;;;;;;;;;1610609;87;21062;-61
2022/07/05 05:38:58;;;;;;;7.40;5.65;;;;;;;;;;1648234;86;21077;-63
2022/07/05 05:41:24;;;;;;;10.10;5.53;;;;;;;;;;1641411;86;21089;-63
2022/07/05 05:43:50;;;;;;;8.30;5.75;;;;;;;;;;1641901;86;21600;-62
2022/07/05 05:46:16;;;;;;;7.50;4.78;;;;;;;;;;1641258;87;21069;-62
2022/07/05 05:48:42;;;;;;;10.55;5.35;;;;;;;;;;1642291;86;21062;-62
2022/07/05 05:51:08;;;;;;;6.72;5.35;;;;;;;;;;1644566;87;21081;-63
2022/07/05 05:53:34;;;;;;;10.05;5.67;;;;;;;;;;1647555;87;21517;-61
2022/07/05 05:56:02;;;;;;;7.92;5.72;;;;;;;;;;1627009;88;21084;-62
2022/07/05 05:58:28;;;;;;;12.40;5.53;;;;;;;;;;1643459;86;21022;-62
2022/07/05 06:00:54;;;;;;;9.75;5.37;;;;;;;;;;1643194;86;21062;-62
2022/07/05 06:03:21;;;;;;;10.00;5.70;;;;;;;;;;1647237;86;21112;-61
2022/07/05 06:05:47;;;;;;;11.10;6.20;;;;;;;;;;1649213;86;21066;-62
2022/07/05 06:08:13;;;;;;;7.75;5.40;;;;;;;;;;1668033;84;21174;-61
2022/07/05 06:10:40;;;;;;;15.10;6.65;;;;;;;;;;1670503;85;21048;-62
2022/07/05 06:13:08;;;;;;;10.72;5.75;;;;;;;;;;1665327;84;22081;-62
2022/07/05 06:15:34;;;;;;;10.80;5.35;;;;;;;;;;1667714;86;21022;-62
2022/07/05 06:18:00;;;;;;;8.95;6.03;;;;;;;;;;1674352;84;21066;-61
2022/07/05 06:20:31;;;;;;;8.95;5.58;;;;;;;;;;1651893;85;21605;-62
2022/07/05 06:22:57;;;;;;;10.58;6.35;;;;;;;;;;1687230;84;21038;-63
2022/07/05 06:25:23;;;;;;;11.57;6.00;;;;;;;;;;1688772;84;21104;-74
2022/07/05 06:27:50;;;;;;;9.40;5.72;;;;;;;;;;1679757;84;21049;-61
2022/07/05 06:30:17;;;;;;;9.80;5.92;;;;;;;;;;1681816;85;21043;-60
2022/07/05 06:32:44;;;;;;;10.25;6.25;;;;;;;;;;1700596;83;21049;-60
2022/07/05 06:35:10;;;;;;;7.00;5.22;;;;;;;;;;1683797;85;21077;-61
2022/07/05 06:37:44;;;;;;;10.68;5.22;;;;;;;;;;1706961;83;21021;-61
2022/07/05 06:40:13;;;;;;;9.28;5.72;;;;;;;;;;1687857;85;21033;-62
2022/07/05 06:42:39;;;;;;;10.35;5.30;;;;;;;;;;1678738;85;21106;-61
2022/07/05 06:45:06;;;;;;;7.05;5.30;;;;;;;;;;1657467;86;21077;-61
2022/07/05 06:47:34;;;;;;;8.05;5.60;;;;;;;;;;1660339;86;21540;-61
2022/07/05 06:50:02;;;;;;;12.55;5.47;;;;;;;;;;1649589;87;21073;-61
2022/07/05 06:52:28;;;;;;;6.83;5.10;;;;;;;;;;1690532;84;21037;-61
2022/07/05 06:54:54;;;;;;;7.78;5.45;;;;;;;;;;1685947;85;21049;-61
2022/07/05 06:57:21;;;;;;;6.08;4.72;;;;;;;;;;1686056;85;21014;-62
2022/07/05 06:59:47;;;;;;;8.35;5.37;;;;;;;;;;1692069;83;21532;-61
2022/07/05 07:02:13;;;;;;;7.00;4.60;;;;;;;;;;1686618;85;21061;-61
2022/07/05 07:04:39;;;;;;;8.60;5.30;;;;;;;;;;1655624;85;22100;-61
2022/07/05 07:09:17;;;;;;;9.65;5.45;;;;;;;;;;1669482;86;21102;-61
2022/07/05 07:09:34;;;;;;;7.62;5.28;;;;;;;;;;1664485;86;21498;-62
2022/07/05 07:12:00;;;;;;;8.43;4.85;;;;;;;;;;1666028;86;21073;-62
2022/07/05 07:14:26;;;;;;;5.62;4.65;;;;;;;;;;1662851;86;21053;-63
2022/07/05 07:16:52;;;;;;;7.62;4.67;;;;;;;;;;1659585;86;21054;-63
2022/07/05 07:19:18;;;;;;;7.58;4.40;;;;;;;;;;1664518;86;21529;-63
2022/07/05 07:21:45;;;;;;;9.38;4.58;;;;;;;;;;1670009;86;21078;-63
2022/07/05 07:24:11;;;;;;;5.53;4.60;;;;;;;;;;1667105;84;21041;-62
2022/07/05 07:27:22;;;;;;;7.00;4.50;;;;;;;;;;1662776;86;21061;-62
2022/07/05 07:29:05;;;;;;;9.48;4.50;;;;;;;;;;1650074;86;21114;-61
2022/07/05 07:31:31;;;;;;;5.30;4.03;;;;;;;;;;1659472;86;21096;-64
2022/07/05 07:33:58;;;;;;;5.08;4.20;;;;;;;;;;1671456;86;21054;-63
2022/07/05 07:36:24;;;;;;;6.62;4.30;;;;;;;;;;1658580;86;21037;-63
2022/07/05 07:38:50;;;;;;;5.20;4.45;;;;;;;;;;1660161;85;21061;-62
2022/07/05 07:41:16;;;;;;;6.95;4.78;;;;;;;;;;1671669;86;21450;-61
2022/07/05 07:43:42;;;;;;;8.50;4.35;;;;;;;;;;1659933;86;21049;-63
2022/07/05 07:46:08;;;;;;;6.08;4.17;;;;;;;;;;1659912;86;21064;-60
2022/07/05 07:48:35;;;;;;;5.55;4.60;;;;;;;;;;1671834;86;21058;-61
2022/07/05 07:51:01;;;;;;;5.55;4.00;;;;;;;;;;1678839;85;21124;-61
2022/07/05 07:53:27;;;;;;;6.42;4.20;;;;;;;;;;1669196;84;21045;-63
2022/07/05 07:55:53;;;;;;;7.03;5.30;;;;;;;;;;1670033;84;21556;-63
2022/07/05 07:58:19;;;;;;;7.53;4.80;;;;;;;;;;1671673;86;21081;-63
2022/07/05 08:00:46;;;;;;;6.47;4.45;;;;;;;;;;1641097;86;21065;-62
2022/07/05 08:03:12;;;;;;;5.42;4.55;;;;;;;;;;1668386;86;21085;-63
2022/07/05 08:05:38;;;;;;;7.45;4.67;;;;;;;;;;1669751;84;21069;-63
2022/07/05 08:08:05;;;;;;;4.90;4.30;;;;;;;;;;1645768;87;21497;-63
2022/07/05 08:10:32;;;;;;;6.22;4.50;;;;;;;;;;1645765;87;21545;-62
2022/07/05 08:12:59;;;;;;;4.83;4.03;;;;;;;;;;1677902;85;21089;-60
2022/07/05 08:15:25;;;;;;;6.22;4.58;;;;;;;;;;1672890;85;21077;-62
2022/07/05 08:23:21;;;;;;;5.42;3.98;;;;;;;;;;1673543;85;21521;-61
2022/07/05 08:25:47;;;;;;;6.60;4.28;;;;;;;;;;1676393;85;21605;-62
2022/07/05 08:30:16;;;;;;;5.15;4.40;;;;;;;;;;1786669;78;23606;-62
2022/07/05 08:32:43;;;;;;;15.28;5.17;;;;;;;;;;1749678;80;21020;-63
2022/07/05 08:35:09;;;;;;;5.83;4.72;;;;;;;;;;1761512;81;21021;-62
2022/07/05 08:37:35;;;;;;;5.12;4.62;;;;;;;;;;1763902;80;21068;-62
2022/07/05 08:40:02;;;;;;;6.42;4.75;;;;;;;;;;1762854;80;21048;-62
2022/07/05 08:42:28;;;;;;;5.20;4.70;;;;;;;;;;1757246;80;21024;-60
2022/07/05 08:44:55;;;;;;;7.62;5.05;;;;;;;;;;1764024;80;21126;-63
2022/07/05 08:47:22;;;;;;;6.47;4.37;;;;;;;;;;1760039;80;21044;-61
2022/07/05 08:49:48;;;;;;;8.78;4.45;;;;;;;;;;1755925;80;21099;-62
2022/07/05 08:52:15;;;;;;;5.20;4.10;;;;;;;;;;1771652;80;21072;-61
2022/07/05 08:54:42;;;;;;;5.53;4.22;;;;;;;;;;1762150;81;21614;-61
2022/07/05 08:57:08;;;;;;;4.60;3.90;;;;;;;;;;1759230;81;21516;-65
2022/07/05 08:59:35;;;;;;;8.40;4.40;;;;;;;;;;1753218;82;21068;-62
2022/07/05 09:02:02;;;;;;;7.33;4.47;;;;;;;;;;1760047;80;21071;-61
2022/07/05 09:04:32;;;;;;;4.92;4.45;;;;;;;;;;1753904;81;21088;-62
2022/07/05 09:07:02;;;;;;;11.65;5.10;;;;;;;;;;1752268;82;21500;-62
2022/07/05 09:09:28;;;;;;;6.97;4.20;;;;;;;;;;1742510;82;21042;-61
2022/07/05 09:11:55;;;;;;;5.85;4.72;;;;;;;;;;1750645;82;21018;-63
2022/07/05 09:14:23;;;;;;;6.95;4.70;;;;;;;;;;1736001;82;21535;-62
2022/07/05 09:16:49;;;;;;;6.25;4.90;;;;;;;;;;1728293;82;20993;-63
2022/07/05 09:19:16;;;;;;;6.45;4.83;;;;;;;;;;1723620;83;21040;-62
2022/07/05 09:21:42;;;;;;;5.97;4.40;;;;;;;;;;1726300;82;20993;-62
2022/07/05 09:24:09;;;;;;;5.00;4.40;;;;;;;;;;1732085;82;21016;-62
2022/07/05 09:26:38;;;;;;;5.28;4.50;;;;;;;;;;1722853;82;21021;-63
2022/07/05 09:29:05;;;;;;;9.08;5.90;;;;;;;;;;1734616;81;21155;-62
2022/07/05 09:31:35;;;;;;;5.62;4.37;;;;;;;;;;1708542;82;21008;-61
2022/07/05 09:34:05;;;;;;;5.20;4.37;;;;;;;;;;1720623;82;21009;-61
2022/07/05 09:36:50;;;;;;;5.25;4.28;;;;;;;;;;1726317;82;21017;-62
2022/07/05 09:39:18;;;;;;;5.15;4.35;;;;;;;;;;1733855;82;21006;-61
2022/07/05 09:41:45;;;;;;;5.00;4.35;;;;;;;;;;1738977;82;21033;-61
2022/07/05 09:44:11;;;;;;;6.47;4.70;;;;;;;;;;1739451;82;21061;-61
2022/07/05 09:46:37;;;;;;;5.45;4.67;;;;;;;;;;1728167;82;21068;-63
2022/07/05 09:49:04;;;;;;;6.97;4.72;;;;;;;;;;1719081;82;21069;-62
2022/07/05 09:51:30;;;;;;;10.28;4.30;;;;;;;;;;1733142;82;21081;-62
2022/07/05 09:53:58;;;;;;;5.00;4.28;;;;;;;;;;1718614;82;21017;-63
2022/07/05 09:56:29;;;;;;;5.42;4.17;;;;;;;;;;1736866;82;21032;-63
2022/07/05 09:58:53;;;;;;;9.55;4.80;;;;;;;;;;1718116;82;21005;-62
2022/07/05 10:01:27;;;;;;;5.97;4.40;;;;;;;;;;1721655;82;21037;-61
2022/07/05 10:03:54;;;;;;;6.10;4.30;;;;;;;;;;1733086;82;21173;-62
2022/07/05 10:06:22;;;;;;;5.62;4.53;;;;;;;;;;1710015;84;22205;-62
2022/07/05 10:08:49;;;;;;;7.15;4.55;;;;;;;;;;1721902;82;21064;-63
2022/07/05 10:11:20;;;;;;;9.55;4.33;;;;;;;;;;1739385;82;21029;-63
2022/07/05 10:13:47;;;;;;;5.15;4.62;;;;;;;;;;1739768;82;21493;-63
2022/07/05 10:16:17;;;;;;;5.28;4.67;;;;;;;;;;1723468;82;20970;-62
2022/07/05 10:18:44;;;;;;;6.72;4.45;;;;;;;;;;1709527;81;21012;-61
2022/07/05 10:21:12;;;;;;;5.85;4.30;;;;;;;;;;1705610;82;20969;-61
2022/07/05 10:23:38;;;;;;;6.12;4.35;;;;;;;;;;1754246;81;21068;-62
2022/07/05 10:26:05;;;;;;;5.65;4.25;;;;;;;;;;1714572;82;21033;-62
2022/07/05 10:28:31;;;;;;;4.83;4.00;;;;;;;;;;1728962;82;21033;-62
2022/07/05 10:30:57;;;;;;;5.37;4.50;;;;;;;;;;1712144;82;21061;-62
2022/07/05 10:33:26;;;;;;;5.70;4.67;;;;;;;;;;1737767;82;21026;-62
2022/07/05 10:35:53;;;;;;;4.83;4.22;;;;;;;;;;1739676;82;20997;-62
2022/07/05 10:38:19;;;;;;;7.42;4.62;;;;;;;;;;1732169;82;20981;-61
2022/07/05 10:40:47;;;;;;;5.03;4.33;;;;;;;;;;1729272;82;21052;-61
2022/07/05 10:43:13;;;;;;;4.87;3.80;;;;;;;;;;1732805;82;21053;-61
2022/07/05 10:45:41;;;;;;;7.55;4.90;;;;;;;;;;1729430;82;21604;-63
2022/07/05 10:48:12;;;;;;;5.47;4.60;;;;;;;;;;1725893;82;20981;-61
2022/07/05 10:50:55;;;;;;;4.90;4.35;;;;;;;;;;1721377;82;21079;-61
2022/07/05 10:53:32;;;;;;;6.58;4.75;;;;;;;;;;1670779;85;21095;-61
2022/07/05 10:56:01;;;;;;;4.95;4.42;;;;;;;;;;1711348;82;21097;-61
2022/07/05 10:58:36;;;;;;;5.40;4.42;;;;;;;;;;1735164;82;21571;-61
2022/07/05 11:01:13;;;;;;;5.08;4.58;;;;;;;;;;1726489;82;21080;-62
2022/07/05 11:03:44;;;;;;;7.58;4.62;;;;;;;;;;1728606;82;21065;-62
2022/07/05 11:06:20;;;;;;;5.55;4.40;;;;;;;;;;1709890;84;21159;-62
2022/07/05 11:08:58;;;;;;;6.30;4.35;;;;;;;;;;1715303;82;21022;-62
2022/07/05 11:11:29;;;;;;;5.22;4.03;;;;;;;;;;1712192;82;21552;-62
2022/07/05 11:13:55;;;;;;;4.95;4.45;;;;;;;;;;1721805;82;20997;-61
2022/07/05 11:16:23;;;;;;;6.12;4.40;;;;;;;;;;1710267;84;21084;-61
2022/07/05 11:18:51;;;;;;;6.67;4.58;;;;;;;;;;1711027;82;21046;-61
2022/07/05 11:21:19;;;;;;;6.33;4.55;;;;;;;;;;1711072;82;21154;-62
2022/07/05 11:23:46;;;;;;;4.47;4.08;;;;;;;;;;1724816;82;21104;-64
2022/07/05 11:26:13;;;;;;;5.78;4.47;;;;;;;;;;1715004;82;21084;-62
2022/07/05 11:28:45;;;;;;;5.28;4.30;;;;;;;;;;1722558;82;21125;-62
2022/07/05 11:31:11;;;;;;;10.23;4.60;;;;;;;;;;1734880;82;21050;-61
2022/07/05 11:33:39;;;;;;;5.67;4.08;;;;;;;;;;1728507;82;21085;-62
2022/07/05 11:36:07;;;;;;;5.03;4.53;;;;;;;;;;1721106;82;21010;-62
2022/07/05 11:38:34;;;;;;;6.53;4.58;;;;;;;;;;1710391;82;21065;-62
2022/07/05 11:41:13;;;;;;;6.08;4.67;;;;;;;;;;1699325;82;20994;-62
2022/07/05 11:43:41;;;;;;;9.13;4.58;;;;;;;;;;1727152;82;21581;-63
2022/07/05 11:46:07;;;;;;;5.08;4.58;;;;;;;;;;1710114;84;21819;-63
2022/07/05 11:48:33;;;;;;;7.40;5.08;;;;;;;;;;1709795;84;21556;-63
2022/07/05 11:51:02;;;;;;;4.78;4.35;;;;;;;;;;1711666;82;21061;-63
2022/07/05 11:53:30;;;;;;;5.97;5.33;;;;;;;;;;1726791;82;21084;-63
2022/07/05 11:55:57;;;;;;;5.33;4.83;;;;;;;;;;1712039;82;21136;-63
2022/07/05 11:58:26;;;;;;;6.15;4.87;;;;;;;;;;1689914;84;21041;-63
2022/07/05 12:00:56;;;;;;;7.55;4.50;;;;;;;;;;1725936;82;21489;-62
2022/07/05 12:03:22;;;;;;;5.40;4.28;;;;;;;;;;1739348;82;21132;-63
2022/07/05 12:05:48;;;;;;;6.58;5.50;;;;;;;;;;1739654;82;21092;-63
2022/07/05 12:08:20;;;;;;;7.28;5.20;;;;;;;;;;1718093;82;21060;-77
2022/07/05 12:13:44;;;;;;;9.23;5.35;;;;;;;;;;1710497;82;21064;-75
2022/07/05 12:16:11;;;;;;;12.00;4.87;;;;;;;;;;1728194;82;21006;-75
2022/07/05 12:18:48;;;;;;;9.00;4.70;;;;;;;;;;1739359;82;21059;-75
2022/07/05 12:21:14;;;;;;;5.85;4.95;;;;;;;;;;1724123;81;21061;-75
2022/07/05 12:23:41;;;;;;;9.58;4.97;;;;;;;;;;1712884;82;21119;-76
2022/07/05 12:26:08;;;;;;;8.95;5.15;;;;;;;;;;1700688;82;21079;-75
2022/07/05 12:28:36;;;;;;;5.17;4.40;;;;;;;;;;1685731;84;21056;-76
2022/07/05 12:31:18;;;;;;;5.55;4.80;;;;;;;;;;1705459;82;20966;-76
2022/07/05 12:33:45;;;;;;;6.00;4.45;;;;;;;;;;1710249;84;21064;-76
2022/07/05 12:36:12;;;;;;;5.00;4.50;;;;;;;;;;1710119;84;20962;-76
2022/07/05 12:38:38;;;;;;;7.30;4.65;;;;;;;;;;1715528;82;21029;-76
2022/07/05 12:41:04;;;;;;;7.85;4.92;;;;;;;;;;1737165;82;21025;-77
2022/07/05 12:43:32;;;;;;;5.12;4.58;;;;;;;;;;1713347;82;21626;-62
2022/07/05 12:46:02;;;;;;;6.05;4.12;;;;;;;;;;1712447;82;21076;-61
2022/07/05 12:48:33;;;;;;;5.10;4.30;;;;;;;;;;1709995;84;21540;-64
2022/07/05 12:50:59;;;;;;;6.35;5.28;;;;;;;;;;1712485;82;21018;-62
2022/07/05 12:59:00;;;;;;;5.65;4.65;;;;;;;;;;1710273;84;21496;-61
2022/07/05 13:01:27;;;;;;;8.68;4.78;;;;;;;;;;1709729;84;21069;-62
2022/07/05 13:04:00;;;;;;;5.50;4.58;;;;;;;;;;1723703;82;21116;-63
2022/07/05 13:06:42;;;;;;;6.08;5.47;;;;;;;;;;1710405;82;21025;-61
2022/07/05 13:09:09;;;;;;;9.97;4.60;;;;;;;;;;1710215;84;21064;-62
2022/07/05 13:11:37;;;;;;;5.50;4.12;;;;;;;;;;1708831;82;21070;-62
2022/07/05 13:14:03;;;;;;;4.97;4.35;;;;;;;;;;1723455;82;21037;-62
2022/07/05 13:16:29;;;;;;;6.83;4.75;;;;;;;;;;1720855;82;21088;-62
2022/07/05 13:19:06;;;;;;;5.28;4.30;;;;;;;;;;1722083;82;21504;-62
2022/07/05 13:21:33;;;;;;;5.20;4.53;;;;;;;;;;1710155;83;21009;-62
2022/07/05 13:24:00;;;;;;;7.50;4.90;;;;;;;;;;1720886;82;21061;-62
2022/07/05 13:26:26;;;;;;;5.30;4.62;;;;;;;;;;1738914;82;21061;-62
2022/07/05 13:28:52;;;;;;;4.67;4.15;;;;;;;;;;1739379;82;21080;-62
2022/07/05 13:31:19;;;;;;;5.05;4.08;;;;;;;;;;1748652;82;21036;-62
2022/07/05 13:33:48;;;;;;;6.00;4.53;;;;;;;;;;1729009;82;21024;-63
2022/07/05 13:36:14;;;;;;;5.83;4.50;;;;;;;;;;1723525;83;21060;-63
2022/07/05 13:38:41;;;;;;;6.25;4.60;;;;;;;;;;1724495;82;21060;-64
2022/07/05 13:41:07;;;;;;;4.95;3.92;;;;;;;;;;1728857;82;20997;-62
2022/07/05 13:43:33;;;;;;;6.75;4.47;;;;;;;;;;1725719;82;21049;-62
2022/07/05 13:45:59;;;;;;;4.85;4.20;;;;;;;;;;1737174;82;21111;-63
2022/07/05 13:48:25;;;;;;;5.80;4.70;;;;;;;;;;1749065;82;21092;-61
2022/07/05 13:50:52;;;;;;;5.30;4.60;;;;;;;;;;1753610;82;21060;-64
2022/07/05 13:53:18;;;;;;;6.75;4.05;;;;;;;;;;1753756;82;21068;-64
2022/07/05 13:55:44;;;;;;;5.12;4.62;;;;;;;;;;1753609;82;21064;-61
2022/07/05 13:58:10;;;;;;;5.83;4.20;;;;;;;;;;1740626;82;21020;-62
2022/07/05 14:00:37;;;;;;;8.85;4.62;;;;;;;;;;1726273;82;21056;-63
2022/07/05 14:03:03;;;;;;;5.55;4.20;;;;;;;;;;1725981;82;21127;-62
2022/07/05 14:05:29;;;;;;;8.80;4.60;;;;;;;;;;1728857;82;21061;-63
2022/07/05 14:07:56;;;;;;;7.12;4.53;;;;;;;;;;1724288;82;21107;-63
2022/07/05 14:10:22;;;;;;;10.10;4.72;;;;;;;;;;1732677;82;21500;-63
2022/07/05 14:12:48;;;;;;;5.42;4.40;;;;;;;;;;1732291;82;21176;-64
2022/07/05 14:15:15;;;;;;;21.57;5.25;;;;;;;;;;1724321;82;21064;-62
2022/07/05 14:17:42;;;;;;;6.45;4.47;;;;;;;;;;1723992;82;21064;-62
2022/07/05 14:20:09;;;;;;;4.92;3.77;;;;;;;;;;1728873;82;21057;-62
2022/07/05 14:22:36;;;;;;;5.75;4.40;;;;;;;;;;1730418;82;21035;-62
2022/07/05 14:25:03;;;;;;;5.17;4.60;;;;;;;;;;1752771;82;21076;-63
2022/07/05 14:27:29;;;;;;;5.15;4.58;;;;;;;;;;1742253;82;21068;-63
2022/07/05 14:29:57;;;;;;;5.70;4.03;;;;;;;;;;1730482;82;21072;-63
2022/07/05 14:32:23;;;;;;;7.87;4.22;;;;;;;;;;1742137;82;21041;-63
2022/07/05 14:34:49;;;;;;;5.42;4.80;;;;;;;;;;1747802;82;21619;-64
2022/07/05 14:37:20;;;;;;;6.35;4.67;;;;;;;;;;1742751;82;21076;-63
2022/07/05 14:39:44;;;;;;;5.35;4.78;;;;;;;;;;1728931;82;21048;-63
2022/07/05 14:42:11;;;;;;;7.45;4.55;;;;;;;;;;1739759;82;21085;-63
2022/07/05 14:44:37;;;;;;;5.50;4.72;;;;;;;;;;1726253;82;21033;-63
2022/07/05 14:47:05;;;;;;;9.88;5.10;;;;;;;;;;1730201;82;20994;-63
2022/07/05 14:49:31;;;;;;;5.50;4.03;;;;;;;;;;1734246;82;20990;-62
2022/07/05 14:51:57;;;;;;;5.25;4.58;;;;;;;;;;1737652;82;21009;-63
2022/07/05 14:54:24;;;;;;;4.90;4.25;;;;;;;;;;1718638;82;21505;-64
2022/07/05 14:56:50;;;;;;;5.60;4.17;;;;;;;;;;1730199;82;21021;-61
2022/07/05 14:59:16;;;;;;;4.55;4.03;;;;;;;;;;1738234;82;21009;-62